Terminal Aerodrome Forecast
Issued by NWS

Current Version | Previous Version | Text Only | Print | Product List | Glossary Off
Versions: 1 2 3 4 5 6 7 8 9 10 11 12 13 14 15

650
FTUS41 KPBZ 212320
TAFMGW
TAF
KMGW 212320Z 2200/2224 27003KT P6SM SCT040
     FM221400 32005KT P6SM BKN025
     FM221600 32005KT P6SM SCT040=

USA.gov is the U.S. government's official web portal to all federal, state and local government web resources and services.